Seafrance Rodin — FOBQ — position and weather

sailwx.info

Track history (hours):
 
Tides and Currents Weather Stations Pressure Air Temp Water Temp Dewpoint Dewpoint Depression Visibility Wind Speed Wind Dir Waves Ship Positions

Seafrance Rodin

Operator: SeaFrance

Last reported at 2018-Sep-19 02:31 UTC. Time now 2018-Sep-19 02:54 UTC.
Position N 50°58' E 001°47'.

Length 185 m; draft 6 m.

Type: Ship (hazmat cat A). MMSI: 227022800.

Date/timePositionNaut miles runAvg speedWind from/ knotsBaromVisibWave heightAir tempDewpointWater temp
2018-Sep-19 02:31N 50°58' E 001°47'3 6.4
2018-Sep-19 02:03N 50°58' E 001°51'0 0.0
2018-Sep-19 02:00N 50°58' E 001°51'0 0.0
2018-Sep-19 01:30N 50°58' E 001°51'1 2.0
2018-Sep-19 01:03N 50°58' E 001°50'115.5
2018-Sep-19 01:00N 50°58' E 001°49'815.9
2018-Sep-19 00:31N 50°59' E 001°36'715.9
2018-Sep-19 00:03N 51°04' E 001°28'116.9
2018-Sep-19 00:00N 51°05' E 001°27'510.1
2018-Sep-18 23:30N 51°08' E 001°20'0 0.0
2018-Sep-18 23:03N 51°08' E 001°20'0 0.1
2018-Sep-18 22:56N 51°08' E 001°20'511.4
2018-Sep-18 22:31N 51°06' E 001°28'919.2
2018-Sep-18 22:03N 51°00' E 001°39'118.4
2018-Sep-18 22:01N 50°60' E 001°40'714.8
2018-Sep-18 21:30N 50°58' E 001°51'0 0.1
2018-Sep-18 21:03N 50°58' E 001°51'0 0.0
2018-Sep-18 21:00N 50°58' E 001°51'611.9
2018-Sep-18 20:30N 50°58' E 001°42'919.2
2018-Sep-18 20:04N 51°01' E 001°29'118.5
2018-Sep-18 20:00N 51°02' E 001°28'711.3
2018-Sep-18 19:22N 51°08' E 001°20'0 0.0
2018-Sep-18 18:52N 51°08' E 001°20'1 1.5
2018-Sep-18 18:30N 51°07' E 001°21'816.7
2018-Sep-18 18:03N 51°05' E 001°32'117.1
2018-Sep-18 18:01N 51°04' E 001°34'917.3
2018-Sep-18 17:30N 50°59' E 001°44'510.3
2018-Sep-18 17:03N 50°58' E 001°51'0 0.0
2018-Sep-18 17:00N 50°58' E 001°51'0 0.0
2018-Sep-18 16:30N 50°58' E 001°51'2 4.8
2018-Sep-18 16:03N 50°58' E 001°48'118.1
2018-Sep-18 16:01N 50°58' E 001°46'816.8
2018-Sep-18 15:30N 51°02' E 001°35'817.3
2018-Sep-18 15:04N 51°06' E 001°24'117.9
2018-Sep-18 15:01N 51°06' E 001°23'2 2.0
2018-Sep-18 14:03N 51°08' E 001°20'0 0.1
2018-Sep-18 13:59N 51°08' E 001°20'4 9.2
2018-Sep-18 13:31N 51°06' E 001°27'817.7
2018-Sep-18 13:04N 51°01' E 001°37'118.0
2018-Sep-18 13:00N 51°01' E 001°39'816.2
2018-Sep-18 12:30N 50°58' E 001°51'0 0.9
2018-Sep-18 12:03N 50°58' E 001°51'0 0.0
2018-Sep-18 12:00N 50°58' E 001°51'0 0.1
2018-Sep-18 11:30N 50°58' E 001°51'614.1
2018-Sep-18 11:03N 50°58' E 001°41'118.6
2018-Sep-18 11:00N 50°59' E 001°40'918.5
2018-Sep-18 10:30N 51°04' E 001°27'612.4
2018-Sep-18 10:02N 51°08' E 001°20'0 0.0
2018-Sep-18 10:00N 51°08' E 001°20'0 0.0
2018-Sep-18 09:30N 51°08' E 001°20'0 0.1
2018-Sep-18 09:03N 51°07' E 001°20'0 0.7
2018-Sep-18 09:00N 51°07' E 001°20'611.1
2018-Sep-18 08:31N 51°05' E 001°28'716.6
2018-Sep-18 08:04N 51°04' E 001°40'119.3
2018-Sep-18 08:01N 51°03' E 001°41'714.8
2018-Sep-18 07:30N 50°58' E 001°50'1 2.0
2018-Sep-18 07:04N 50°58' E 001°51'0 0.0
2018-Sep-18 07:01N 50°58' E 001°51'0 0.0
2018-Sep-18 06:30N 50°58' E 001°51'2 5.0
2018-Sep-18 06:04N 50°58' E 001°48'117.4
2018-Sep-18 06:01N 50°58' E 001°46'917.1
2018-Sep-18 05:30N 51°00' E 001°33'716.5
2018-Sep-18 05:04N 51°05' E 001°24'116.6
2018-Sep-18 05:01N 51°06' E 001°23'3 3.9
2018-Sep-18 04:19N 51°08' E 001°20'0 0.0
2018-Sep-18 04:03N 51°08' E 001°20'0 0.1
2018-Sep-18 03:57N 51°08' E 001°20'3 6.0
2018-Sep-18 03:31N 51°07' E 001°24'715.8
2018-Sep-18 03:03N 51°03' E 001°34'116.3
2018-Sep-18 03:00N 51°03' E 001°35'816.0
2018-Sep-18 02:31N 50°58' E 001°46'4 7.8
2018-Sep-18 02:03N 50°58' E 001°51'0 0.0
2018-Sep-18 02:00N 50°58' E 001°51'0 0.0
2018-Sep-18 01:30N 50°58' E 001°51'1 1.3
2018-Sep-18 01:03N 50°58' E 001°50'111.1
2018-Sep-18 01:01N 50°58' E 001°50'815.4
2018-Sep-18 00:30N 50°60' E 001°37'816.8
2018-Sep-18 00:03N 51°04' E 001°28'116.8
2018-Sep-18 00:00N 51°04' E 001°27'510.0
2018-Sep-17 23:30N 51°08' E 001°20'0 0.0
2018-Sep-17 23:03N 51°08' E 001°20'0 0.0
2018-Sep-17 23:00N 51°08' E 001°20'3 5.9
2018-Sep-17 22:30N 51°07' E 001°25'716.3
2018-Sep-17 22:03N 51°02' E 001°35'116.9
2018-Sep-17 22:01N 51°02' E 001°36'816.6
2018-Sep-17 21:30N 50°58' E 001°47'2 5.0
2018-Sep-17 21:03N 50°58' E 001°51'0 0.0
2018-Sep-17 21:00N 50°58' E 001°51'0 0.0
2018-Sep-17 20:30N 50°58' E 001°51'4 9.5
2018-Sep-17 20:03N 50°58' E 001°44'114.6
2018-Sep-17 20:00N 50°58' E 001°43'714.7
2018-Sep-17 19:30N 51°00' E 001°32'715.4
2018-Sep-17 19:03N 51°06' E 001°25'118.2
2018-Sep-17 19:00N 51°06' E 001°24'2 3.5
2018-Sep-17 18:18N 51°08' E 001°20'0 0.0
2018-Sep-17 18:02N 51°08' E 001°20'0 0.1
2018-Sep-17 17:59N 51°08' E 001°20'511.2
2018-Sep-17 17:30N 51°06' E 001°28'919.0
2018-Sep-17 17:03N 51°01' E 001°39'118.8
2018-Sep-17 17:00N 51°00' E 001°41'714.1
2018-Sep-17 16:30N 50°58' E 001°51'0 0.1
2018-Sep-17 16:03N 50°58' E 001°51'0 0.0
2018-Sep-17 16:00N 50°58' E 001°51'2 4.4
2018-Sep-17 15:30N 50°58' E 001°48'715.4
2018-Sep-17 15:04N 50°60' E 001°37'117.1
2018-Sep-17 15:01N 51°00' E 001°36'817.0
2018-Sep-17 14:31N 51°05' E 001°25'4 6.2
2018-Sep-17 13:54N 51°08' E 001°20'0 0.0
2018-Sep-17 13:29N 51°08' E 001°20'3 7.7
2018-Sep-17 13:03N 51°06' E 001°25'119.6
2018-Sep-17 13:00N 51°06' E 001°26'1019.6
2018-Sep-17 12:31N 51°01' E 001°39'716.5
2018-Sep-17 12:03N 50°58' E 001°51'0 4.2
2018-Sep-17 12:01N 50°58' E 001°51'0 0.3
2018-Sep-17 11:30N 50°58' E 001°51'0 0.5
2018-Sep-17 11:03N 50°58' E 001°51'0 8.1
2018-Sep-17 11:00N 50°58' E 001°50'815.6
2018-Sep-17 10:30N 50°59' E 001°38'716.4
2018-Sep-17 10:03N 51°03' E 001°29'116.6
2018-Sep-17 10:00N 51°04' E 001°28'611.7
2018-Sep-17 09:30N 51°08' E 001°20'0 0.0
2018-Sep-17 09:04N 51°08' E 001°20'0 0.0
2018-Sep-17 09:00N 51°08' E 001°20'3 5.2
2018-Sep-17 08:30N 51°07' E 001°24'918.8
2018-Sep-17 08:03N 51°03' E 001°36'119.0
2018-Sep-17 08:00N 51°02' E 001°37'817.0
2018-Sep-17 07:30N 50°58' E 001°49'1 2.8
2018-Sep-17 07:03N 50°58' E 001°51'0 0.0
2018-Sep-17 07:00N 50°58' E 001°51'0 0.0
2018-Sep-17 06:30N 50°58' E 001°51'2 4.6
2018-Sep-17 06:03N 50°58' E 001°48'115.1
2018-Sep-17 06:00N 50°58' E 001°47'815.1
2018-Sep-17 05:31N 51°01' E 001°36'715.9
2018-Sep-17 05:03N 51°05' E 001°27'115.8
2018-Sep-17 05:01N 51°06' E 001°26'4 4.7
2018-Sep-17 04:11N 51°08' E 001°20'0 0.0
2018-Sep-17 04:03N 51°08' E 001°20'0 0.0
2018-Sep-17 04:00N 51°08' E 001°20'3 6.6
2018-Sep-17 03:31N 51°07' E 001°25'715.9
2018-Sep-17 03:03N 51°03' E 001°35'116.0
2018-Sep-17 03:00N 51°02' E 001°36'815.9
2018-Sep-17 02:30N 50°58' E 001°47'3 6.2
2018-Sep-17 02:03N 50°58' E 001°51'0 0.0
2018-Sep-17 02:00N 50°58' E 001°51'0 0.0
2018-Sep-17 01:30N 50°58' E 001°51'1 1.6
2018-Sep-17 01:03N 50°58' E 001°50'114.2
2018-Sep-17 01:00N 50°58' E 001°49'815.3
2018-Sep-17 00:30N 50°59' E 001°37'716.6
2018-Sep-17 00:04N 51°03' E 001°27'116.7
2018-Sep-17 00:00N 51°04' E 001°26'510.1
2018-Sep-16 23:30N 51°08' E 001°20'0 0.0
2018-Sep-16 23:03N 51°08' E 001°20'0 0.0
2018-Sep-16 22:58N 51°08' E 001°20'2 5.1
2018-Sep-16 22:30N 51°07' E 001°24'817.4
2018-Sep-16 22:03N 51°03' E 001°35'117.6
2018-Sep-16 22:00N 51°02' E 001°36'817.0
2018-Sep-16 21:30N 50°58' E 001°47'2 5.3
2018-Sep-16 21:04N 50°58' E 001°51'0 0.0
2018-Sep-16 21:00N 50°58' E 001°51'0 0.0
2018-Sep-16 20:31N 50°58' E 001°51'3 6.1
2018-Sep-16 20:03N 50°58' E 001°47'116.3
2018-Sep-16 20:01N 50°58' E 001°46'815.9
2018-Sep-16 19:31N 51°01' E 001°34'816.7
2018-Sep-16 19:03N 51°06' E 001°25'117.6
2018-Sep-16 19:01N 51°06' E 001°24'2 3.4
2018-Sep-16 18:19N 51°08' E 001°20'0 0.0
2018-Sep-16 18:03N 51°08' E 001°20'0 1.5
2018-Sep-16 18:00N 51°07' E 001°20'713.8
2018-Sep-16 17:30N 51°06' E 001°31'818.9
2018-Sep-16 17:03N 51°00' E 001°41'118.6
2018-Sep-16 17:00N 50°60' E 001°42'611.6
2018-Sep-16 16:30N 50°58' E 001°51'0 0.0
2018-Sep-16 16:03N 50°58' E 001°51'0 0.0
2018-Sep-16 16:00N 50°58' E 001°51'2 4.6
2018-Sep-16 15:30N 50°58' E 001°48'716.2
2018-Sep-16 15:04N 51°00' E 001°37'116.0
2018-Sep-16 15:01N 51°00' E 001°35'815.8
2018-Sep-16 14:30N 51°05' E 001°25'4 3.9
2018-Sep-16 13:30N 51°08' E 001°20'2 5.3
2018-Sep-16 13:04N 51°07' E 001°24'117.3
2018-Sep-16 13:00N 51°07' E 001°25'917.7
2018-Sep-16 12:31N 51°02' E 001°37'817.4
2018-Sep-16 12:03N 50°58' E 001°48'117.1
2018-Sep-16 12:00N 50°58' E 001°50'1 2.0
2018-Sep-16 11:18N 50°58' E 001°52'0 0.0
2018-Sep-16 10:45N 50°58' E 001°52'0 0.0
2018-Sep-16 10:21N 50°58' E 001°52'0 0.0
2018-Sep-16 10:00N 50°58' E 001°52'0 0.0
2018-Sep-16 07:42N 50°58' E 001°52'0 0.0
2018-Sep-16 07:18N 50°58' E 001°52'0 0.0
2018-Sep-16 07:03N 50°58' E 001°52'0 0.0
2018-Sep-16 06:48N 50°58' E 001°52'0 0.0
2018-Sep-16 06:30N 50°58' E 001°52'0 0.0
2018-Sep-16 06:03N 50°58' E 001°52'0 0.0
2018-Sep-16 05:45N 50°58' E 001°52'0 0.0
2018-Sep-16 05:27N 50°58' E 001°52'0 1.0
2018-Sep-16 05:01N 50°58' E 001°51'0 0.0
2018-Sep-16 04:58N 50°58' E 001°51'0 0.0
2018-Sep-16 04:28N 50°58' E 001°51'0 0.0
2018-Sep-16 04:01N 50°58' E 001°51'0 0.0
2018-Sep-16 03:58N 50°58' E 001°51'0 0.0
2018-Sep-16 03:28N 50°58' E 001°51'0 0.0
2018-Sep-16 03:01N 50°58' E 001°51'0 0.0
2018-Sep-16 02:58N 50°58' E 001°51'0 0.0
2018-Sep-16 02:31N 50°58' E 001°51'0 0.0
2018-Sep-16 02:03N 50°58' E 001°51'0 0.0
2018-Sep-16 02:00N 50°58' E 001°51'0 0.0
2018-Sep-16 01:30N 50°58' E 001°51'614.0
2018-Sep-16 01:03N 50°58' E 001°41'116.0
2018-Sep-16 01:00N 50°58' E 001°40'816.8
2018-Sep-16 00:30N 51°03' E 001°29'715.9
2018-Sep-16 00:03N 51°08' E 001°20'0 0.4
2018-Sep-15 23:59N 51°08' E 001°20'0 0.0
2018-Sep-15 23:30N 51°08' E 001°20'0 0.0
2018-Sep-15 23:03N 51°08' E 001°20'0 1.1
2018-Sep-15 23:00N 51°07' E 001°20'714.4
2018-Sep-15 22:31N 51°05' E 001°31'818.1
2018-Sep-15 22:03N 50°60' E 001°41'119.3
2018-Sep-15 22:00N 50°59' E 001°42'611.1
2018-Sep-15 21:31N 50°58' E 001°51'0 0.0
2018-Sep-15 21:03N 50°58' E 001°51'0 0.0
2018-Sep-15 21:01N 50°58' E 001°51'0 0.0
2018-Sep-15 20:31N 50°58' E 001°51'3 6.3
2018-Sep-15 20:03N 50°58' E 001°47'116.1
2018-Sep-15 20:01N 50°58' E 001°45'917.2
2018-Sep-15 19:30N 51°01' E 001°33'817.9
2018-Sep-15 19:03N 51°06' E 001°23'117.4
2018-Sep-15 19:00N 51°07' E 001°22'1 1.9
2018-Sep-15 18:28N 51°08' E 001°20'0 0.0
2018-Sep-15 18:02N 51°08' E 001°20'0 1.0
2018-Sep-15 18:00N 51°07' E 001°20'612.2
2018-Sep-15 17:31N 51°06' E 001°30'817.2
2018-Sep-15 17:03N 51°01' E 001°40'117.7
2018-Sep-15 17:00N 51°01' E 001°41'713.7
2018-Sep-15 16:31N 50°58' E 001°51'0 0.4
2018-Sep-15 16:04N 50°58' E 001°51'0 0.0
2018-Sep-15 16:01N 50°58' E 001°51'1 1.6
2018-Sep-15 15:30N 50°58' E 001°50'715.2
2018-Sep-15 15:03N 50°59' E 001°39'1119.5
2018-Sep-15 14:31N 51°05' E 001°25'4 8.0
2018-Sep-15 13:59N 51°08' E 001°20'0 0.0
2018-Sep-15 13:29N 51°08' E 001°20'4 8.9
2018-Sep-15 13:03N 51°07' E 001°26'119.8
2018-Sep-15 13:00N 51°06' E 001°28'1122.4
2018-Sep-15 12:30N 50°59' E 001°42'613.6
2018-Sep-15 12:04N 50°58' E 001°51'0 0.0
2018-Sep-15 12:01N 50°58' E 001°51'0 0.0
2018-Sep-15 11:30N 50°58' E 001°51'510.5
2018-Sep-15 11:04N 50°58' E 001°44'117.3
2018-Sep-15 11:00N 50°58' E 001°42'917.2
2018-Sep-15 10:30N 51°02' E 001°30'818.1
2018-Sep-15 10:04N 51°07' E 001°21'0 4.7
2018-Sep-15 10:00N 51°08' E 001°20'0 0.0
2018-Sep-15 09:10N 51°08' E 001°20'0 0.0
2018-Sep-15 09:02N 51°08' E 001°20'0 0.3
2018-Sep-15 09:00N 51°08' E 001°20'611.3
2018-Sep-15 08:30N 51°06' E 001°29'919.0
2018-Sep-15 08:03N 51°01' E 001°40'119.3
2018-Sep-15 08:00N 50°60' E 001°41'713.1
2018-Sep-15 07:30N 50°58' E 001°51'0 0.2
2018-Sep-15 07:03N 50°58' E 001°51'0 0.0
2018-Sep-15 07:00N 50°58' E 001°51'0 0.0
2018-Sep-15 06:31N 50°58' E 001°51'4 9.8
2018-Sep-15 06:03N 50°58' E 001°44'117.2
2018-Sep-15 06:00N 50°58' E 001°43'816.5
2018-Sep-15 05:30N 51°02' E 001°31'715.5
2018-Sep-15 05:03N 51°06' E 001°22'116.3
2018-Sep-15 05:00N 51°06' E 001°21'1 2.2
2018-Sep-15 04:22N 51°08' E 001°20'0 0.0
2018-Sep-15 04:01N 51°08' E 001°20'0 0.0
2018-Sep-15 03:56N 51°08' E 001°20'4 8.9
2018-Sep-15 03:30N 51°06' E 001°26'817.2
2018-Sep-15 03:03N 51°02' E 001°36'117.0
2018-Sep-15 03:00N 51°02' E 001°37'714.9
2018-Sep-15 02:30N 50°58' E 001°48'2 4.4
2018-Sep-15 02:03N 50°58' E 001°51'0 0.0
2018-Sep-15 02:00N 50°58' E 001°51'0 0.0
2018-Sep-15 01:30N 50°58' E 001°51'0 0.5
2018-Sep-15 01:03N 50°58' E 001°51'0 7.1
2018-Sep-15 01:01N 50°58' E 001°50'815.3
2018-Sep-15 00:30N 50°60' E 001°39'716.6
2018-Sep-15 00:03N 51°03' E 001°28'116.9
2018-Sep-15 00:00N 51°03' E 001°27'611.6
2018-Sep-14 23:30N 51°08' E 001°20'0 0.0
2018-Sep-14 23:03N 51°08' E 001°20'0 0.0
2018-Sep-14 22:59N 51°08' E 001°20'3 5.6
2018-Sep-14 22:30N 51°07' E 001°25'716.5
2018-Sep-14 22:03N 51°04' E 001°35'116.9
2018-Sep-14 22:00N 51°03' E 001°36'816.8
2018-Sep-14 21:30N 50°58' E 001°47'3 6.4
2018-Sep-14 21:03N 50°58' E 001°51'0 0.0
2018-Sep-14 21:00N 50°58' E 001°51'0 0.0
2018-Sep-14 20:30N 50°58' E 001°51'2 4.3
2018-Sep-14 20:03N 50°58' E 001°48'116.0
2018-Sep-14 20:00N 50°58' E 001°47'917.4
2018-Sep-14 19:30N 51°01' E 001°34'818.5
2018-Sep-14 19:03N 51°06' E 001°23'118.2
2018-Sep-14 19:00N 51°07' E 001°22'2 1.8
2018-Sep-14 18:08N 51°08' E 001°20'0 0.0
2018-Sep-14 18:01N 51°08' E 001°20'0 0.0
2018-Sep-14 17:59N 51°08' E 001°20'511.3
2018-Sep-14 17:30N 51°06' E 001°29'920.5
2018-Sep-14 17:04N 51°00' E 001°40'120.0
2018-Sep-14 17:00N 50°60' E 001°42'612.3
2018-Sep-14 16:30N 50°58' E 001°51'0 0.0
2018-Sep-14 16:03N 50°58' E 001°51'0 0.0
2018-Sep-14 16:00N 50°58' E 001°51'1 2.3
2018-Sep-14 15:31N 50°58' E 001°50'816.7
2018-Sep-14 15:03N 50°59' E 001°38'117.3
2018-Sep-14 15:00N 50°60' E 001°36'817.0
2018-Sep-14 14:30N 51°05' E 001°25'4 8.3
2018-Sep-14 14:00N 51°08' E 001°20'0 0.0
2018-Sep-14 13:23N 51°08' E 001°20'3 8.4
2018-Sep-14 13:04N 51°07' E 001°25'118.2
2018-Sep-14 13:00N 51°07' E 001°26'917.7
2018-Sep-14 12:31N 51°02' E 001°38'817.4
2018-Sep-14 12:03N 50°58' E 001°49'115.7
2018-Sep-14 12:01N 50°58' E 001°50'1 1.5
2018-Sep-14 11:30N 50°58' E 001°51'0 1.0
2018-Sep-14 11:03N 50°58' E 001°51'113.5
2018-Sep-14 11:00N 50°58' E 001°50'816.5
2018-Sep-14 10:30N 50°60' E 001°37'918.9
2018-Sep-14 10:04N 51°05' E 001°26'118.3
2018-Sep-14 10:00N 51°05' E 001°25'4 5.5
2018-Sep-14 09:22N 51°08' E 001°20'0 0.0
2018-Sep-14 08:54N 51°08' E 001°20'4 9.4
2018-Sep-14 08:30N 51°07' E 001°26'817.1
2018-Sep-14 08:04N 51°02' E 001°36'117.5
2018-Sep-14 08:00N 51°02' E 001°37'816.9
2018-Sep-14 07:30N 50°58' E 001°49'1 2.7
2018-Sep-14 07:03N 50°58' E 001°51'0 0.0
2018-Sep-14 07:00N 50°58' E 001°51'0 0.0
2018-Sep-14 06:30N 50°58' E 001°51'4 8.9
2018-Sep-14 06:04N 50°58' E 001°45'114.8
2018-Sep-14 06:01N 50°58' E 001°44'815.2
2018-Sep-14 05:30N 51°02' E 001°34'715.3
2018-Sep-14 05:03N 51°06' E 001°24'115.9
2018-Sep-14 05:01N 51°06' E 001°23'2 4.5
2018-Sep-14 04:30N 51°08' E 001°20'0 0.0
2018-Sep-14 04:03N 51°08' E 001°20'0 0.0
2018-Sep-14 03:59N 51°08' E 001°20'4 7.9
2018-Sep-14 03:30N 51°07' E 001°26'716.5
2018-Sep-14 03:03N 51°03' E 001°36'116.8
2018-Sep-14 03:01N 51°03' E 001°38'815.3
2018-Sep-14 02:30N 50°58' E 001°47'2 5.3
2018-Sep-14 02:03N 50°58' E 001°51'0 0.0
2018-Sep-14 02:00N 50°58' E 001°51'0 0.0
2018-Sep-14 01:30N 50°58' E 001°51'0 0.2
2018-Sep-14 01:03N 50°58' E 001°51'0 5.9
2018-Sep-14 01:00N 50°58' E 001°51'816.4
2018-Sep-14 00:31N 50°59' E 001°38'817.0
2018-Sep-14 00:03N 51°04' E 001°28'116.2
2018-Sep-14 00:00N 51°04' E 001°27'510.2
2018-Sep-13 23:30N 51°08' E 001°20'0 0.0
2018-Sep-13 23:03N 51°08' E 001°20'0 0.0
2018-Sep-13 22:51N 51°08' E 001°20'3 7.4
2018-Sep-13 22:30N 51°07' E 001°24'716.0
2018-Sep-13 22:03N 51°03' E 001°34'116.3
2018-Sep-13 22:00N 51°02' E 001°35'917.3
2018-Sep-13 21:30N 50°58' E 001°47'3 6.3
2018-Sep-13 21:03N 50°58' E 001°51'0 0.0
2018-Sep-13 21:00N 50°58' E 001°51'0 0.0
2018-Sep-13 20:30N 50°58' E 001°51'612.8
2018-Sep-13 20:03N 50°58' E 001°42'115.8
2018-Sep-13 20:00N 50°58' E 001°41'917.1
2018-Sep-13 19:31N 51°03' E 001°30'816.7
2018-Sep-13 19:03N 51°07' E 001°20'0 0.2
2018-Sep-13 18:19N 51°08' E 001°20'1 3.4
2018-Sep-13 18:03N 51°07' E 001°22'117.9
2018-Sep-13 18:01N 51°07' E 001°23'815.5
2018-Sep-13 17:30N 51°03' E 001°33'818.7
2018-Sep-13 17:03N 50°58' E 001°45'116.7
2018-Sep-13 17:00N 50°58' E 001°46'3 6.7
2018-Sep-13 16:30N 50°58' E 001°51'0 0.0
2018-Sep-13 16:03N 50°58' E 001°51'0 0.0
2018-Sep-13 16:00N 50°58' E 001°51'4 7.1
2018-Sep-13 15:30N 50°58' E 001°46'817.8
2018-Sep-13 15:04N 51°01' E 001°34'118.4
2018-Sep-13 15:00N 51°01' E 001°33'1010.0
2018-Sep-13 14:01N 51°08' E 001°20'0 0.0
2018-Sep-13 14:00N 51°08' E 001°20'0 0.1
2018-Sep-13 13:29N 51°07' E 001°20'512.3
2018-Sep-13 13:04N 51°07' E 001°29'119.0
2018-Sep-13 13:00N 51°06' E 001°30'918.6
2018-Sep-13 12:30N 50°60' E 001°41'714.7
2018-Sep-13 12:04N 50°58' E 001°51'0 2.1
2018-Sep-13 12:00N 50°58' E 001°51'0 0.0
2018-Sep-13 11:30N 50°58' E 001°51'0 1.0
2018-Sep-13 11:03N 50°58' E 001°51'111.2
2018-Sep-13 11:01N 50°58' E 001°50'917.5
2018-Sep-13 10:31N 50°59' E 001°36'919.9
2018-Sep-13 10:03N 51°04' E 001°24'121.2
2018-Sep-13 10:01N 51°05' E 001°23'3 6.8
2018-Sep-13 09:30N 51°08' E 001°20'0 0.0
2018-Sep-13 09:02N 51°08' E 001°20'0 0.0
2018-Sep-13 08:58N 51°08' E 001°20'4 8.4
2018-Sep-13 08:30N 51°06' E 001°26'818.0
2018-Sep-13 08:03N 51°02' E 001°36'118.0
2018-Sep-13 08:00N 51°01' E 001°38'816.6
2018-Sep-13 07:30N 50°58' E 001°50'1 1.6
2018-Sep-13 07:03N 50°58' E 001°51'0 0.0
2018-Sep-13 07:00N 50°58' E 001°51'0 0.0
2018-Sep-13 06:30N 50°58' E 001°51'2 4.9
2018-Sep-13 06:04N 50°58' E 001°48'115.3
2018-Sep-13 06:00N 50°58' E 001°47'815.6
2018-Sep-13 05:30N 51°00' E 001°35'716.7
2018-Sep-13 05:04N 51°05' E 001°25'117.2
2018-Sep-13 05:00N 51°05' E 001°24'3 5.6
2018-Sep-13 04:25N 51°08' E 001°20'0 0.0
2018-Sep-13 04:03N 51°08' E 001°20'0 0.0
2018-Sep-13 03:59N 51°08' E 001°20'4 7.8
2018-Sep-13 03:30N 51°07' E 001°26'716.6
2018-Sep-13 03:03N 51°02' E 001°36'116.5
2018-Sep-13 03:00N 51°02' E 001°37'815.2
2018-Sep-13 02:30N 50°58' E 001°47'3 5.6
2018-Sep-13 02:03N 50°58' E 001°51'0 0.0
2018-Sep-13 02:01N 50°58' E 001°51'0 0.0
2018-Sep-13 01:30N 50°58' E 001°51'1 1.9
2018-Sep-13 01:03N 50°58' E 001°50'112.4
2018-Sep-13 01:00N 50°58' E 001°49'918.4
2018-Sep-13 00:30N 50°59' E 001°34'715.7
2018-Sep-13 00:03N 51°04' E 001°27'117.0
2018-Sep-13 00:00N 51°04' E 001°26'5 9.3
2018-Sep-12 23:30N 51°08' E 001°20'0 0.0
2018-Sep-12 23:01N 51°08' E 001°20'0 0.0
2018-Sep-12 22:59N 51°08' E 001°20'4 8.0
2018-Sep-12 22:30N 51°06' E 001°26'919.1
2018-Sep-12 22:03N 51°01' E 001°37'118.8
2018-Sep-12 22:00N 51°01' E 001°39'816.7
2018-Sep-12 21:30N 50°58' E 001°51'0 0.3
2018-Sep-12 21:03N 50°58' E 001°51'0 0.0
2018-Sep-12 21:00N 50°58' E 001°51'1 1.7
2018-Sep-12 20:30N 50°58' E 001°50'817.1
2018-Sep-12 20:03N 50°59' E 001°38'120.1
2018-Sep-12 20:00N 50°60' E 001°36'1020.7
2018-Sep-12 19:30N 51°06' E 001°23'3 2.2
2018-Sep-12 18:20N 51°08' E 001°20'1 3.4
2018-Sep-12 18:03N 51°07' E 001°22'114.1
2018-Sep-12 18:00N 51°07' E 001°23'918.9
2018-Sep-12 17:30N 51°02' E 001°36'919.0
2018-Sep-12 17:03N 50°58' E 001°47'119.2
2018-Sep-12 17:00N 50°58' E 001°49'1 2.8
2018-Sep-12 16:31N 50°58' E 001°51'0 0.0
2018-Sep-12 16:04N 50°58' E 001°51'0 0.0
2018-Sep-12 16:00N 50°58' E 001°51'611.9
2018-Sep-12 15:30N 50°58' E 001°42'920.4
2018-Sep-12 15:03N 51°03' E 001°29'120.5
2018-Sep-12 15:00N 51°04' E 001°28'6 6.3
2018-Sep-12 14:02N 51°08' E 001°20'0 0.0
2018-Sep-12 13:57N 51°08' E 001°20'0 0.9
2018-Sep-12 13:30N 51°07' E 001°21'818.3
2018-Sep-12 13:03N 51°05' E 001°33'121.0
2018-Sep-12 13:01N 51°04' E 001°34'1019.3
2018-Sep-12 12:31N 50°58' E 001°47'3 6.3
2018-Sep-12 12:03N 50°58' E 001°51'0 0.0
2018-Sep-12 12:00N 50°58' E 001°51'0 0.0
2018-Sep-12 11:30N 50°58' E 001°51'1 3.1
2018-Sep-12 11:03N 50°58' E 001°49'115.2
2018-Sep-12 11:00N 50°58' E 001°48'816.2
2018-Sep-12 10:30N 51°00' E 001°35'817.0
2018-Sep-12 10:03N 51°04' E 001°25'118.3
2018-Sep-12 10:00N 51°04' E 001°24'4 4.8
2018-Sep-12 09:13N 51°08' E 001°20'0 0.0
2018-Sep-12 09:03N 51°08' E 001°20'0 0.0
2018-Sep-12 08:48N 51°08' E 001°20'2 7.9
2018-Sep-12 08:31N 51°07' E 001°24'919.1
2018-Sep-12 08:03N 51°02' E 001°35'118.9
2018-Sep-12 08:00N 51°02' E 001°36'918.1
2018-Sep-12 07:31N 50°58' E 001°50'1 2.1
2018-Sep-12 07:04N 50°58' E 001°51'0 0.0
2018-Sep-12 07:00N 50°58' E 001°51'0 0.0
2018-Sep-12 06:31N 50°58' E 001°51'4 8.0
2018-Sep-12 06:03N 50°58' E 001°46'116.1
2018-Sep-12 06:00N 50°58' E 001°44'816.6
2018-Sep-12 05:30N 51°02' E 001°33'818.7
2018-Sep-12 05:04N 51°07' E 001°22'115.2
2018-Sep-12 05:01N 51°07' E 001°21'1 0.8
2018-Sep-12 04:22N 51°08' E 001°20'0 0.0
2018-Sep-12 04:03N 51°08' E 001°20'0 0.0
2018-Sep-12 04:00N 51°08' E 001°20'3 7.0
2018-Sep-12 03:31N 51°07' E 001°26'816.6
2018-Sep-12 03:03N 51°03' E 001°36'116.9
2018-Sep-12 03:00N 51°02' E 001°37'815.4
2018-Sep-12 02:30N 50°58' E 001°47'2 5.4
2018-Sep-12 02:03N 50°58' E 001°51'0 0.0
2018-Sep-12 02:00N 50°58' E 001°51'0 0.0
2018-Sep-12 01:30N 50°58' E 001°51'0 0.1
2018-Sep-12 01:03N 50°58' E 001°51'0 4.9
2018-Sep-12 01:00N 50°58' E 001°51'917.5
2018-Sep-12 00:30N 50°58' E 001°37'817.6
2018-Sep-12 00:03N 51°03' E 001°27'118.1
2018-Sep-12 00:00N 51°04' E 001°26'5 8.6
2018-Sep-11 23:25N 51°08' E 001°20'0 0.0
2018-Sep-11 23:03N 51°08' E 001°20'0 0.0
2018-Sep-11 22:59N 51°08' E 001°20'3 6.9
2018-Sep-11 22:30N 51°07' E 001°25'921.0
2018-Sep-11 22:03N 51°02' E 001°39'121.5
2018-Sep-11 22:01N 51°01' E 001°40'815.8
2018-Sep-11 21:30N 50°58' E 001°51'0 0.1
2018-Sep-11 21:04N 50°58' E 001°51'0 0.0
2018-Sep-11 21:00N 50°58' E 001°51'3 6.2
2018-Sep-11 20:31N 50°58' E 001°46'715.6
2018-Sep-11 20:04N 50°60' E 001°36'118.8
2018-Sep-11 20:00N 51°00' E 001°34'1019.9
2018-Sep-11 19:31N 51°06' E 001°22'1 3.0
2018-Sep-11 19:03N 51°08' E 001°20'0 0.0
2018-Sep-11 18:36N 51°08' E 001°20'0 0.2
2018-Sep-11 18:30N 51°08' E 001°20'510.2
2018-Sep-11 18:03N 51°06' E 001°27'116.7
2018-Sep-11 18:00N 51°06' E 001°28'817.0
2018-Sep-11 17:31N 51°01' E 001°39'716.0
2018-Sep-11 17:03N 50°58' E 001°50'110.4
2018-Sep-11 17:00N 50°58' E 001°51'0 0.5
2018-Sep-11 16:30N 50°58' E 001°51'0 0.6
2018-Sep-11 16:03N 50°58' E 001°51'0 9.1
2018-Sep-11 16:00N 50°58' E 001°50'816.3
2018-Sep-11 15:30N 50°60' E 001°37'919.2
2018-Sep-11 15:04N 51°05' E 001°26'120.1
2018-Sep-11 15:00N 51°05' E 001°25'4 4.9
2018-Sep-11 14:17N 51°08' E 001°20'0 0.0
2018-Sep-11 14:00N 51°08' E 001°20'0 0.8
2018-Sep-11 13:30N 51°07' E 001°20'613.1
2018-Sep-11 13:04N 51°05' E 001°29'119.0
2018-Sep-11 13:01N 51°05' E 001°30'918.4
2018-Sep-11 12:31N 50°60' E 001°42'612.9
2018-Sep-11 12:04N 50°58' E 001°51'0 0.5
2018-Sep-11 12:00N 50°58' E 001°51'0 0.0
2018-Sep-11 11:30N 50°58' E 001°51'0 0.2
2018-Sep-11 11:03N 50°58' E 001°51'0 6.3
2018-Sep-11 11:00N 50°58' E 001°51'918.5
2018-Sep-11 10:30N 50°60' E 001°36'920.2
2018-Sep-11 10:03N 51°05' E 001°24'119.7
2018-Sep-11 10:01N 51°06' E 001°23'3 5.1
2018-Sep-11 09:28N 51°08' E 001°20'0 0.0
2018-Sep-11 09:03N 51°08' E 001°20'0 0.0
2018-Sep-11 08:58N 51°08' E 001°20'2 5.4
2018-Sep-11 08:31N 51°07' E 001°24'918.9
2018-Sep-11 08:03N 51°02' E 001°35'119.1
2018-Sep-11 08:01N 51°02' E 001°37'917.8
2018-Sep-11 07:30N 50°58' E 001°50'1 2.1
2018-Sep-11 07:03N 50°58' E 001°51'0 0.0
2018-Sep-11 07:00N 50°58' E 001°51'0 0.0
2018-Sep-11 06:30N 50°58' E 001°51'3 6.1
2018-Sep-11 06:04N 50°58' E 001°47'116.8
2018-Sep-11 06:01N 50°58' E 001°46'816.4
2018-Sep-11 05:31N 51°02' E 001°34'817.4
2018-Sep-11 05:03N 51°06' E 001°24'116.6
2018-Sep-11 05:00N 51°06' E 001°22'2 3.4
2018-Sep-11 04:30N 51°08' E 001°20'0 0.0
2018-Sep-11 04:03N 51°08' E 001°20'0 0.0
2018-Sep-11 03:59N 51°08' E 001°20'3 6.2
2018-Sep-11 03:31N 51°07' E 001°25'715.7
2018-Sep-11 03:03N 51°03' E 001°34'115.9
2018-Sep-11 03:00N 51°02' E 001°35'815.3
2018-Sep-11 02:31N 50°58' E 001°45'4 8.2
2018-Sep-11 02:03N 50°58' E 001°51'0 0.0
2018-Sep-11 02:01N 50°58' E 001°51'0 0.0
2018-Sep-11 01:31N 50°58' E 001°51'0 0.1
2018-Sep-11 01:04N 50°58' E 001°51'0 3.8
2018-Sep-11 01:01N 50°58' E 001°51'714.1
2018-Sep-11 00:30N 50°59' E 001°40'818.3
2018-Sep-11 00:04N 51°03' E 001°29'117.9
2018-Sep-11 00:01N 51°04' E 001°28'610.1
2018-Sep-10 23:25N 51°08' E 001°20'0 0.0
2018-Sep-10 22:57N 51°08' E 001°20'2 5.5
2018-Sep-10 22:30N 51°07' E 001°24'818.8
2018-Sep-10 22:03N 51°02' E 001°35'119.4
2018-Sep-10 22:00N 51°01' E 001°36'917.6
2018-Sep-10 21:30N 50°58' E 001°49'1 2.8
2018-Sep-10 21:03N 50°58' E 001°51'0 0.0
2018-Sep-10 21:00N 50°58' E 001°51'0 0.0
2018-Sep-10 20:31N 50°58' E 001°51'510.1
2018-Sep-10 20:04N 50°58' E 001°44'117.7
2018-Sep-10 20:00N 50°58' E 001°43'917.4
2018-Sep-10 19:31N 51°02' E 001°30'818.6
2018-Sep-10 19:04N 51°07' E 001°20'0 2.1
2018-Sep-10 19:00N 51°08' E 001°20'0 0.0
2018-Sep-10 18:28N 51°08' E 001°20'0 0.3
2018-Sep-10 18:03N 51°07' E 001°20'0 7.2
2018-Sep-10 18:00N 51°07' E 001°21'4 8.5
2018-Sep-10 17:30N 51°07' E 001°28'818.6
2018-Sep-10 17:03N 51°02' E 001°39'119.1
2018-Sep-10 17:00N 51°01' E 001°40'815.7
2018-Sep-10 16:31N 50°58' E 001°51'0 0.3
2018-Sep-10 16:03N 50°58' E 001°51'0 0.0
2018-Sep-10 16:00N 50°58' E 001°51'1 2.0
2018-Sep-10 15:31N 50°58' E 001°50'818.2
2018-Sep-10 15:03N 50°60' E 001°37'119.6
2018-Sep-10 15:00N 51°00' E 001°36'1019.7
2018-Sep-10 14:30N 51°06' E 001°23'2 3.8
2018-Sep-10 13:55N 51°08' E 001°20'0 0.0
2018-Sep-10 13:30N 51°08' E 001°20'3 5.7
2018-Sep-10 13:03N 51°07' E 001°24'118.3
2018-Sep-10 13:00N 51°07' E 001°26'1019.4
2018-Sep-10 12:30N 51°02' E 001°39'816.9
2018-Sep-10 12:04N 50°58' E 001°50'112.7
2018-Sep-10 12:00N 50°58' E 001°51'0 0.7
2018-Sep-10 11:30N 50°58' E 001°51'0 0.0
2018-Sep-10 11:03N 50°58' E 001°51'0 2.6
2018-Sep-10 11:00N 50°58' E 001°51'815.3
2018-Sep-10 10:30N 50°59' E 001°39'817.1
2018-Sep-10 10:03N 51°03' E 001°29'117.2
2018-Sep-10 10:00N 51°04' E 001°28'611.9
2018-Sep-10 09:30N 51°08' E 001°20'0 0.0
2018-Sep-10 09:01N 51°08' E 001°20'0 0.0
2018-Sep-10 09:00N 51°08' E 001°20'3 5.1
2018-Sep-10 08:30N 51°07' E 001°24'818.2
2018-Sep-10 08:03N 51°02' E 001°35'118.5
2018-Sep-10 08:00N 51°02' E 001°36'917.5
2018-Sep-10 07:31N 50°58' E 001°49'2 3.6
2018-Sep-10 07:04N 50°58' E 001°51'0 0.0
2018-Sep-10 07:01N 50°58' E 001°51'0 0.0
2018-Sep-10 06:30N 50°58' E 001°51'3 7.1
2018-Sep-10 06:03N 50°58' E 001°46'114.7
2018-Sep-10 06:00N 50°58' E 001°45'815.9
2018-Sep-10 05:30N 51°02' E 001°34'816.8
2018-Sep-10 05:03N 51°06' E 001°24'116.2
2018-Sep-10 05:00N 51°06' E 001°23'2 2.5
2018-Sep-10 04:09N 51°08' E 001°20'0 0.1
2018-Sep-10 04:03N 51°08' E 001°20'0 1.0
2018-Sep-10 04:00N 51°07' E 001°20'612.4
2018-Sep-10 03:30N 51°06' E 001°30'816.9
2018-Sep-10 03:03N 51°01' E 001°39'117.0
2018-Sep-10 03:00N 51°01' E 001°40'713.9
2018-Sep-10 02:30N 50°58' E 001°51'0 0.6
2018-Sep-10 02:03N 50°58' E 001°51'0 0.0
2018-Sep-10 02:00N 50°58' E 001°51'0 0.0
2018-Sep-10 01:30N 50°58' E 001°51'0 0.8
2018-Sep-10 01:04N 50°58' E 001°51'110.3
2018-Sep-10 01:00N 50°58' E 001°50'816.7
2018-Sep-10 00:30N 50°60' E 001°37'716.6
2018-Sep-10 00:03N 51°04' E 001°27'117.2
2018-Sep-10 00:00N 51°05' E 001°26'4 8.8
2018-Sep-09 23:30N 51°08' E 001°20'0 0.0
2018-Sep-09 23:02N 51°08' E 001°20'0 0.0
2018-Sep-09 23:01N 51°08' E 001°20'1 2.4
2018-Sep-09 22:30N 51°07' E 001°22'816.8
2018-Sep-09 22:03N 51°04' E 001°33'118.8
2018-Sep-09 22:00N 51°04' E 001°34'918.3
2018-Sep-09 21:30N 50°58' E 001°46'3 7.1
2018-Sep-09 21:03N 50°58' E 001°51'0 0.0
2018-Sep-09 21:00N 50°58' E 001°51'0 0.0
2018-Sep-09 20:30N 50°58' E 001°51'511.3
2018-Sep-09 20:03N 50°58' E 001°43'117.2
2018-Sep-09 20:00N 50°58' E 001°42'917.3
2018-Sep-09 19:30N 51°02' E 001°30'716.2
2018-Sep-09 19:03N 51°07' E 001°21'0 8.1
2018-Sep-09 19:00N 51°07' E 001°20'0 0.2
2018-Sep-09 18:22N 51°08' E 001°20'1 1.6
2018-Sep-09 18:03N 51°07' E 001°20'0 0.0
2018-Sep-09 18:01N 51°07' E 001°20'611.8
2018-Sep-09 17:31N 51°06' E 001°29'918.7
2018-Sep-09 17:03N 51°01' E 001°40'118.9
2018-Sep-09 17:00N 51°00' E 001°41'713.3
2018-Sep-09 16:30N 50°58' E 001°51'0 0.0
2018-Sep-09 16:03N 50°58' E 001°51'0 0.0
2018-Sep-09 16:00N 50°58' E 001°51'2 3.4
2018-Sep-09 15:30N 50°58' E 001°49'715.7
2018-Sep-09 15:03N 50°59' E 001°38'118.5
2018-Sep-09 15:00N 51°00' E 001°37'918.1
2018-Sep-09 14:30N 51°06' E 001°25'4 5.7
2018-Sep-09 13:52N 51°08' E 001°20'0 0.0
2018-Sep-09 13:28N 51°08' E 001°20'3 6.5
2018-Sep-09 13:03N 51°07' E 001°24'118.0
2018-Sep-09 13:00N 51°07' E 001°26'1020.1
2018-Sep-09 12:31N 51°01' E 001°39'816.9
2018-Sep-09 12:03N 50°58' E 001°50'1 4.1
2018-Sep-09 11:56N 50°58' E 001°51'0 0.1
2018-Sep-09 11:26N 50°58' E 001°51'0 0.0
2018-Sep-09 10:59N 50°58' E 001°51'0 0.0
2018-Sep-09 10:29N 50°58' E 001°51'0 0.0
2018-Sep-09 10:02N 50°58' E 001°51'0 0.0
2018-Sep-09 09:56N 50°58' E 001°51'0 0.0
2018-Sep-09 09:29N 50°58' E 001°51'0 0.0
2018-Sep-09 09:02N 50°58' E 001°51'0 0.0
2018-Sep-09 08:59N 50°58' E 001°51'0 0.0
2018-Sep-09 08:29N 50°58' E 001°51'0 0.0
2018-Sep-09 08:03N 50°58' E 001°51'0 0.0
2018-Sep-09 08:01N 50°58' E 001°51'0 0.0
2018-Sep-09 07:31N 50°58' E 001°51'0 0.0
2018-Sep-09 07:03N 50°58' E 001°51'0 0.0
2018-Sep-09 07:01N 50°58' E 001°51'0 0.0
2018-Sep-09 06:30N 50°58' E 001°51'0 0.0
2018-Sep-09 06:03N 50°58' E 001°51'0 0.0
2018-Sep-09 06:00N 50°58' E 001°51'0 0.0
2018-Sep-09 05:31N 50°58' E 001°51'0 0.0
2018-Sep-09 05:03N 50°58' E 001°51'0 0.0
2018-Sep-09 05:00N 50°58' E 001°51'0 0.0
2018-Sep-09 04:30N 50°58' E 001°51'0 0.0
2018-Sep-09 04:03N 50°58' E 001°51'0 0.1
2018-Sep-09 04:00N 50°58' E 001°51'0 0.0
2018-Sep-09 03:30N 50°58' E 001°51'0 0.0
2018-Sep-09 03:03N 50°58' E 001°51'0 0.0
2018-Sep-09 03:00N 50°58' E 001°51'0 0.0
2018-Sep-09 02:31N 50°58' E 001°51'  
Track history (hours):
 
Tides and Currents Weather Stations Pressure Air Temp Water Temp Dewpoint Dewpoint Depression Visibility Wind Speed Wind Dir Waves Ship Positions

Seafrance Rodin

Operator: SeaFrance

Last reported at 2018-Sep-19 02:31 UTC. Time now 2018-Sep-19 02:54 UTC.
Position N 50°58' E 001°47'.

Length 185 m; draft 6 m.

Type: Ship (hazmat cat A). MMSI: 227022800.

Date/timePositionNaut miles runAvg speedWind from/ knotsBaromVisibWave heightAir tempDewpointWater temp
2018-Sep-19 02:31N 50°58' E 001°47'3 6.4
2018-Sep-19 02:03N 50°58' E 001°51'0 0.0
2018-Sep-19 02:00N 50°58' E 001°51'0 0.0
2018-Sep-19 01:30N 50°58' E 001°51'1 2.0
2018-Sep-19 01:03N 50°58' E 001°50'115.5
2018-Sep-19 01:00N 50°58' E 001°49'815.9
2018-Sep-19 00:31N 50°59' E 001°36'715.9
2018-Sep-19 00:03N 51°04' E 001°28'116.9
2018-Sep-19 00:00N 51°05' E 001°27'510.1
2018-Sep-18 23:30N 51°08' E 001°20'0 0.0
2018-Sep-18 23:03N 51°08' E 001°20'0 0.1
2018-Sep-18 22:56N 51°08' E 001°20'511.4
2018-Sep-18 22:31N 51°06' E 001°28'919.2
2018-Sep-18 22:03N 51°00' E 001°39'118.4
2018-Sep-18 22:01N 50°60' E 001°40'714.8
2018-Sep-18 21:30N 50°58' E 001°51'0 0.1
2018-Sep-18 21:03N 50°58' E 001°51'0 0.0
2018-Sep-18 21:00N 50°58' E 001°51'611.9
2018-Sep-18 20:30N 50°58' E 001°42'919.2
2018-Sep-18 20:04N 51°01' E 001°29'118.5
2018-Sep-18 20:00N 51°02' E 001°28'711.3
2018-Sep-18 19:22N 51°08' E 001°20'0 0.0
2018-Sep-18 18:52N 51°08' E 001°20'1 1.5
2018-Sep-18 18:30N 51°07' E 001°21'816.7
2018-Sep-18 18:03N 51°05' E 001°32'117.1
2018-Sep-18 18:01N 51°04' E 001°34'917.3
2018-Sep-18 17:30N 50°59' E 001°44'510.3
2018-Sep-18 17:03N 50°58' E 001°51'0 0.0
2018-Sep-18 17:00N 50°58' E 001°51'0 0.0
2018-Sep-18 16:30N 50°58' E 001°51'2 4.8
2018-Sep-18 16:03N 50°58' E 001°48'118.1
2018-Sep-18 16:01N 50°58' E 001°46'816.8
2018-Sep-18 15:30N 51°02' E 001°35'817.3
2018-Sep-18 15:04N 51°06' E 001°24'117.9
2018-Sep-18 15:01N 51°06' E 001°23'2 2.0
2018-Sep-18 14:03N 51°08' E 001°20'0 0.1
2018-Sep-18 13:59N 51°08' E 001°20'4 9.2
2018-Sep-18 13:31N 51°06' E 001°27'817.7
2018-Sep-18 13:04N 51°01' E 001°37'118.0
2018-Sep-18 13:00N 51°01' E 001°39'816.2
2018-Sep-18 12:30N 50°58' E 001°51'0 0.9
2018-Sep-18 12:03N 50°58' E 001°51'0 0.0
2018-Sep-18 12:00N 50°58' E 001°51'0 0.1
2018-Sep-18 11:30N 50°58' E 001°51'614.1
2018-Sep-18 11:03N 50°58' E 001°41'118.6
2018-Sep-18 11:00N 50°59' E 001°40'918.5
2018-Sep-18 10:30N 51°04' E 001°27'612.4
2018-Sep-18 10:02N 51°08' E 001°20'0 0.0
2018-Sep-18 10:00N 51°08' E 001°20'0 0.0
2018-Sep-18 09:30N 51°08' E 001°20'0 0.1
2018-Sep-18 09:03N 51°07' E 001°20'0 0.7
2018-Sep-18 09:00N 51°07' E 001°20'611.1
2018-Sep-18 08:31N 51°05' E 001°28'716.6
2018-Sep-18 08:04N 51°04' E 001°40'119.3
2018-Sep-18 08:01N 51°03' E 001°41'714.8
2018-Sep-18 07:30N 50°58' E 001°50'1 2.0
2018-Sep-18 07:04N 50°58' E 001°51'0 0.0
2018-Sep-18 07:01N 50°58' E 001°51'0 0.0
2018-Sep-18 06:30N 50°58' E 001°51'2 5.0
2018-Sep-18 06:04N 50°58' E 001°48'117.4
2018-Sep-18 06:01N 50°58' E 001°46'917.1
2018-Sep-18 05:30N 51°00' E 001°33'716.5
2018-Sep-18 05:04N 51°05' E 001°24'116.6
2018-Sep-18 05:01N 51°06' E 001°23'3 3.9
2018-Sep-18 04:19N 51°08' E 001°20'0 0.0
2018-Sep-18 04:03N 51°08' E 001°20'0 0.1
2018-Sep-18 03:57N 51°08' E 001°20'3 6.0
2018-Sep-18 03:31N 51°07' E 001°24'715.8
2018-Sep-18 03:03N 51°03' E 001°34'116.3
2018-Sep-18 03:00N 51°03' E 001°35'816.0
2018-Sep-18 02:31N 50°58' E 001°46'4 7.8
2018-Sep-18 02:03N 50°58' E 001°51'0 0.0
2018-Sep-18 02:00N 50°58' E 001°51'0 0.0
2018-Sep-18 01:30N 50°58' E 001°51'1 1.3
2018-Sep-18 01:03N 50°58' E 001°50'111.1
2018-Sep-18 01:01N 50°58' E 001°50'815.4
2018-Sep-18 00:30N 50°60' E 001°37'816.8
2018-Sep-18 00:03N 51°04' E 001°28'116.8
2018-Sep-18 00:00N 51°04' E 001°27'510.0
2018-Sep-17 23:30N 51°08' E 001°20'0 0.0
2018-Sep-17 23:03N 51°08' E 001°20'0 0.0
2018-Sep-17 23:00N 51°08' E 001°20'3 5.9
2018-Sep-17 22:30N 51°07' E 001°25'716.3
2018-Sep-17 22:03N 51°02' E 001°35'116.9
2018-Sep-17 22:01N 51°02' E 001°36'816.6
2018-Sep-17 21:30N 50°58' E 001°47'2 5.0
2018-Sep-17 21:03N 50°58' E 001°51'0 0.0
2018-Sep-17 21:00N 50°58' E 001°51'0 0.0
2018-Sep-17 20:30N 50°58' E 001°51'4 9.5
2018-Sep-17 20:03N 50°58' E 001°44'114.6
2018-Sep-17 20:00N 50°58' E 001°43'714.7
2018-Sep-17 19:30N 51°00' E 001°32'715.4
2018-Sep-17 19:03N 51°06' E 001°25'118.2
2018-Sep-17 19:00N 51°06' E 001°24'2 3.5
2018-Sep-17 18:18N 51°08' E 001°20'0 0.0
2018-Sep-17 18:02N 51°08' E 001°20'0 0.1
2018-Sep-17 17:59N 51°08' E 001°20'511.2
2018-Sep-17 17:30N 51°06' E 001°28'919.0
2018-Sep-17 17:03N 51°01' E 001°39'118.8
2018-Sep-17 17:00N 51°00' E 001°41'714.1
2018-Sep-17 16:30N 50°58' E 001°51'0 0.1
2018-Sep-17 16:03N 50°58' E 001°51'0 0.0
2018-Sep-17 16:00N 50°58' E 001°51'2 4.4
2018-Sep-17 15:30N 50°58' E 001°48'715.4
2018-Sep-17 15:04N 50°60' E 001°37'117.1
2018-Sep-17 15:01N 51°00' E 001°36'817.0
2018-Sep-17 14:31N 51°05' E 001°25'4 6.2
2018-Sep-17 13:54N 51°08' E 001°20'0 0.0
2018-Sep-17 13:29N 51°08' E 001°20'3 7.7
2018-Sep-17 13:03N 51°06' E 001°25'119.6
2018-Sep-17 13:00N 51°06' E 001°26'1019.6
2018-Sep-17 12:31N 51°01' E 001°39'716.5
2018-Sep-17 12:03N 50°58' E 001°51'0 4.2
2018-Sep-17 12:01N 50°58' E 001°51'0 0.3
2018-Sep-17 11:30N 50°58' E 001°51'0 0.5
2018-Sep-17 11:03N 50°58' E 001°51'0 8.1
2018-Sep-17 11:00N 50°58' E 001°50'815.6
2018-Sep-17 10:30N 50°59' E 001°38'716.4
2018-Sep-17 10:03N 51°03' E 001°29'116.6
2018-Sep-17 10:00N 51°04' E 001°28'611.7
2018-Sep-17 09:30N 51°08' E 001°20'0 0.0
2018-Sep-17 09:04N 51°08' E 001°20'0 0.0
2018-Sep-17 09:00N 51°08' E 001°20'3 5.2
2018-Sep-17 08:30N 51°07' E 001°24'918.8
2018-Sep-17 08:03N 51°03' E 001°36'119.0
2018-Sep-17 08:00N 51°02' E 001°37'817.0
2018-Sep-17 07:30N 50°58' E 001°49'1 2.8
2018-Sep-17 07:03N 50°58' E 001°51'0 0.0
2018-Sep-17 07:00N 50°58' E 001°51'0 0.0
2018-Sep-17 06:30N 50°58' E 001°51'2 4.6
2018-Sep-17 06:03N 50°58' E 001°48'115.1
2018-Sep-17 06:00N 50°58' E 001°47'815.1
2018-Sep-17 05:31N 51°01' E 001°36'715.9
2018-Sep-17 05:03N 51°05' E 001°27'115.8
2018-Sep-17 05:01N 51°06' E 001°26'4 4.7
2018-Sep-17 04:11N 51°08' E 001°20'0 0.0
2018-Sep-17 04:03N 51°08' E 001°20'0 0.0
2018-Sep-17 04:00N 51°08' E 001°20'3 6.6
2018-Sep-17 03:31N 51°07' E 001°25'715.9
2018-Sep-17 03:03N 51°03' E 001°35'116.0
2018-Sep-17 03:00N 51°02' E 001°36'815.9
2018-Sep-17 02:30N 50°58' E 001°47'3 6.2
2018-Sep-17 02:03N 50°58' E 001°51'0 0.0
2018-Sep-17 02:00N 50°58' E 001°51'0 0.0
2018-Sep-17 01:30N 50°58' E 001°51'1 1.6
2018-Sep-17 01:03N 50°58' E 001°50'114.2
2018-Sep-17 01:00N 50°58' E 001°49'815.3
2018-Sep-17 00:30N 50°59' E 001°37'716.6
2018-Sep-17 00:04N 51°03' E 001°27'116.7
2018-Sep-17 00:00N 51°04' E 001°26'510.1
2018-Sep-16 23:30N 51°08' E 001°20'0 0.0
2018-Sep-16 23:03N 51°08' E 001°20'0 0.0
2018-Sep-16 22:58N 51°08' E 001°20'2 5.1
2018-Sep-16 22:30N 51°07' E 001°24'817.4
2018-Sep-16 22:03N 51°03' E 001°35'117.6
2018-Sep-16 22:00N 51°02' E 001°36'817.0
2018-Sep-16 21:30N 50°58' E 001°47'2 5.3
2018-Sep-16 21:04N 50°58' E 001°51'0 0.0
2018-Sep-16 21:00N 50°58' E 001°51'0 0.0
2018-Sep-16 20:31N 50°58' E 001°51'3 6.1
2018-Sep-16 20:03N 50°58' E 001°47'116.3
2018-Sep-16 20:01N 50°58' E 001°46'815.9
2018-Sep-16 19:31N 51°01' E 001°34'816.7
2018-Sep-16 19:03N 51°06' E 001°25'117.6
2018-Sep-16 19:01N 51°06' E 001°24'2 3.4
2018-Sep-16 18:19N 51°08' E 001°20'0 0.0
2018-Sep-16 18:03N 51°08' E 001°20'0 1.5
2018-Sep-16 18:00N 51°07' E 001°20'713.8
2018-Sep-16 17:30N 51°06' E 001°31'818.9
2018-Sep-16 17:03N 51°00' E 001°41'118.6
2018-Sep-16 17:00N 50°60' E 001°42'611.6
2018-Sep-16 16:30N 50°58' E 001°51'0 0.0
2018-Sep-16 16:03N 50°58' E 001°51'0 0.0
2018-Sep-16 16:00N 50°58' E 001°51'2 4.6
2018-Sep-16 15:30N 50°58' E 001°48'716.2
2018-Sep-16 15:04N 51°00' E 001°37'116.0
2018-Sep-16 15:01N 51°00' E 001°35'815.8
2018-Sep-16 14:30N 51°05' E 001°25'4 3.9
2018-Sep-16 13:30N 51°08' E 001°20'2 5.3
2018-Sep-16 13:04N 51°07' E 001°24'117.3
2018-Sep-16 13:00N 51°07' E 001°25'917.7
2018-Sep-16 12:31N 51°02' E 001°37'817.4
2018-Sep-16 12:03N 50°58' E 001°48'117.1
2018-Sep-16 12:00N 50°58' E 001°50'1 2.0
2018-Sep-16 11:18N 50°58' E 001°52'0 0.0
2018-Sep-16 10:45N 50°58' E 001°52'0 0.0
2018-Sep-16 10:21N 50°58' E 001°52'0 0.0
2018-Sep-16 10:00N 50°58' E 001°52'0 0.0
2018-Sep-16 07:42N 50°58' E 001°52'0 0.0
2018-Sep-16 07:18N 50°58' E 001°52'0 0.0
2018-Sep-16 07:03N 50°58' E 001°52'0 0.0
2018-Sep-16 06:48N 50°58' E 001°52'0 0.0
2018-Sep-16 06:30N 50°58' E 001°52'0 0.0
2018-Sep-16 06:03N 50°58' E 001°52'0 0.0
2018-Sep-16 05:45N 50°58' E 001°52'0 0.0
2018-Sep-16 05:27N 50°58' E 001°52'0 1.0
2018-Sep-16 05:01N 50°58' E 001°51'0 0.0
2018-Sep-16 04:58N 50°58' E 001°51'0 0.0
2018-Sep-16 04:28N 50°58' E 001°51'0 0.0
2018-Sep-16 04:01N 50°58' E 001°51'0 0.0
2018-Sep-16 03:58N 50°58' E 001°51'0 0.0
2018-Sep-16 03:28N 50°58' E 001°51'0 0.0
2018-Sep-16 03:01N 50°58' E 001°51'0 0.0
2018-Sep-16 02:58N 50°58' E 001°51'0 0.0
2018-Sep-16 02:31N 50°58' E 001°51'0 0.0
2018-Sep-16 02:03N 50°58' E 001°51'0 0.0
2018-Sep-16 02:00N 50°58' E 001°51'0 0.0
2018-Sep-16 01:30N 50°58' E 001°51'614.0
2018-Sep-16 01:03N 50°58' E 001°41'116.0
2018-Sep-16 01:00N 50°58' E 001°40'816.8
2018-Sep-16 00:30N 51°03' E 001°29'715.9
2018-Sep-16 00:03N 51°08' E 001°20'0 0.4
2018-Sep-15 23:59N 51°08' E 001°20'0 0.0
2018-Sep-15 23:30N 51°08' E 001°20'0 0.0
2018-Sep-15 23:03N 51°08' E 001°20'0 1.1
2018-Sep-15 23:00N 51°07' E 001°20'714.4
2018-Sep-15 22:31N 51°05' E 001°31'818.1
2018-Sep-15 22:03N 50°60' E 001°41'119.3
2018-Sep-15 22:00N 50°59' E 001°42'611.1
2018-Sep-15 21:31N 50°58' E 001°51'0 0.0
2018-Sep-15 21:03N 50°58' E 001°51'0 0.0
2018-Sep-15 21:01N 50°58' E 001°51'0 0.0
2018-Sep-15 20:31N 50°58' E 001°51'3 6.3
2018-Sep-15 20:03N 50°58' E 001°47'116.1
2018-Sep-15 20:01N 50°58' E 001°45'917.2
2018-Sep-15 19:30N 51°01' E 001°33'817.9
2018-Sep-15 19:03N 51°06' E 001°23'117.4
2018-Sep-15 19:00N 51°07' E 001°22'1 1.9
2018-Sep-15 18:28N 51°08' E 001°20'0 0.0
2018-Sep-15 18:02N 51°08' E 001°20'0 1.0
2018-Sep-15 18:00N 51°07' E 001°20'612.2
2018-Sep-15 17:31N 51°06' E 001°30'817.2
2018-Sep-15 17:03N 51°01' E 001°40'117.7
2018-Sep-15 17:00N 51°01' E 001°41'713.7
2018-Sep-15 16:31N 50°58' E 001°51'0 0.4
2018-Sep-15 16:04N 50°58' E 001°51'0 0.0
2018-Sep-15 16:01N 50°58' E 001°51'1 1.6
2018-Sep-15 15:30N 50°58' E 001°50'715.2
2018-Sep-15 15:03N 50°59' E 001°39'1119.5
2018-Sep-15 14:31N 51°05' E 001°25'4 8.0
2018-Sep-15 13:59N 51°08' E 001°20'0 0.0
2018-Sep-15 13:29N 51°08' E 001°20'4 8.9
2018-Sep-15 13:03N 51°07' E 001°26'119.8
2018-Sep-15 13:00N 51°06' E 001°28'1122.4
2018-Sep-15 12:30N 50°59' E 001°42'613.6
2018-Sep-15 12:04N 50°58' E 001°51'0 0.0
2018-Sep-15 12:01N 50°58' E 001°51'0 0.0
2018-Sep-15 11:30N 50°58' E 001°51'510.5
2018-Sep-15 11:04N 50°58' E 001°44'117.3
2018-Sep-15 11:00N 50°58' E 001°42'917.2
2018-Sep-15 10:30N 51°02' E 001°30'818.1
2018-Sep-15 10:04N 51°07' E 001°21'0 4.7
2018-Sep-15 10:00N 51°08' E 001°20'0 0.0
2018-Sep-15 09:10N 51°08' E 001°20'0 0.0
2018-Sep-15 09:02N 51°08' E 001°20'0 0.3
2018-Sep-15 09:00N 51°08' E 001°20'611.3
2018-Sep-15 08:30N 51°06' E 001°29'919.0
2018-Sep-15 08:03N 51°01' E 001°40'119.3
2018-Sep-15 08:00N 50°60' E 001°41'713.1
2018-Sep-15 07:30N 50°58' E 001°51'0 0.2
2018-Sep-15 07:03N 50°58' E 001°51'0 0.0
2018-Sep-15 07:00N 50°58' E 001°51'0 0.0
2018-Sep-15 06:31N 50°58' E 001°51'4 9.8
2018-Sep-15 06:03N 50°58' E 001°44'117.2
2018-Sep-15 06:00N 50°58' E 001°43'816.5
2018-Sep-15 05:30N 51°02' E 001°31'715.5
2018-Sep-15 05:03N 51°06' E 001°22'116.3
2018-Sep-15 05:00N 51°06' E 001°21'1 2.2
2018-Sep-15 04:22N 51°08' E 001°20'0 0.0
2018-Sep-15 04:01N 51°08' E 001°20'0 0.0
2018-Sep-15 03:56N 51°08' E 001°20'4 8.9
2018-Sep-15 03:30N 51°06' E 001°26'817.2
2018-Sep-15 03:03N 51°02' E 001°36'117.0
2018-Sep-15 03:00N 51°02' E 001°37'714.9
2018-Sep-15 02:30N 50°58' E 001°48'2 4.4
2018-Sep-15 02:03N 50°58' E 001°51'0 0.0
2018-Sep-15 02:00N 50°58' E 001°51'0 0.0
2018-Sep-15 01:30N 50°58' E 001°51'0 0.5
2018-Sep-15 01:03N 50°58' E 001°51'0 7.1
2018-Sep-15 01:01N 50°58' E 001°50'815.3
2018-Sep-15 00:30N 50°60' E 001°39'716.6
2018-Sep-15 00:03N 51°03' E 001°28'116.9
2018-Sep-15 00:00N 51°03' E 001°27'611.6
2018-Sep-14 23:30N 51°08' E 001°20'0 0.0
2018-Sep-14 23:03N 51°08' E 001°20'0 0.0
2018-Sep-14 22:59N 51°08' E 001°20'3 5.6
2018-Sep-14 22:30N 51°07' E 001°25'716.5
2018-Sep-14 22:03N 51°04' E 001°35'116.9
2018-Sep-14 22:00N 51°03' E 001°36'816.8
2018-Sep-14 21:30N 50°58' E 001°47'3 6.4
2018-Sep-14 21:03N 50°58' E 001°51'0 0.0
2018-Sep-14 21:00N 50°58' E 001°51'0 0.0
2018-Sep-14 20:30N 50°58' E 001°51'2 4.3
2018-Sep-14 20:03N 50°58' E 001°48'116.0
2018-Sep-14 20:00N 50°58' E 001°47'917.4
2018-Sep-14 19:30N 51°01' E 001°34'818.5
2018-Sep-14 19:03N 51°06' E 001°23'118.2
2018-Sep-14 19:00N 51°07' E 001°22'2 1.8
2018-Sep-14 18:08N 51°08' E 001°20'0 0.0
2018-Sep-14 18:01N 51°08' E 001°20'0 0.0
2018-Sep-14 17:59N 51°08' E 001°20'511.3
2018-Sep-14 17:30N 51°06' E 001°29'920.5
2018-Sep-14 17:04N 51°00' E 001°40'120.0
2018-Sep-14 17:00N 50°60' E 001°42'612.3
2018-Sep-14 16:30N 50°58' E 001°51'0 0.0
2018-Sep-14 16:03N 50°58' E 001°51'0 0.0
2018-Sep-14 16:00N 50°58' E 001°51'1 2.3
2018-Sep-14 15:31N 50°58' E 001°50'816.7
2018-Sep-14 15:03N 50°59' E 001°38'117.3
2018-Sep-14 15:00N 50°60' E 001°36'817.0
2018-Sep-14 14:30N 51°05' E 001°25'4 8.3
2018-Sep-14 14:00N 51°08' E 001°20'0 0.0
2018-Sep-14 13:23N 51°08' E 001°20'3 8.4
2018-Sep-14 13:04N 51°07' E 001°25'118.2
2018-Sep-14 13:00N 51°07' E 001°26'917.7
2018-Sep-14 12:31N 51°02' E 001°38'817.4
2018-Sep-14 12:03N 50°58' E 001°49'115.7
2018-Sep-14 12:01N 50°58' E 001°50'1 1.5
2018-Sep-14 11:30N 50°58' E 001°51'0 1.0
2018-Sep-14 11:03N 50°58' E 001°51'113.5
2018-Sep-14 11:00N 50°58' E 001°50'816.5
2018-Sep-14 10:30N 50°60' E 001°37'918.9
2018-Sep-14 10:04N 51°05' E 001°26'118.3
2018-Sep-14 10:00N 51°05' E 001°25'4 5.5
2018-Sep-14 09:22N 51°08' E 001°20'0 0.0
2018-Sep-14 08:54N 51°08' E 001°20'4 9.4
2018-Sep-14 08:30N 51°07' E 001°26'817.1
2018-Sep-14 08:04N 51°02' E 001°36'117.5
2018-Sep-14 08:00N 51°02' E 001°37'816.9
2018-Sep-14 07:30N 50°58' E 001°49'1 2.7
2018-Sep-14 07:03N 50°58' E 001°51'0 0.0
2018-Sep-14 07:00N 50°58' E 001°51'0 0.0
2018-Sep-14 06:30N 50°58' E 001°51'4 8.9
2018-Sep-14 06:04N 50°58' E 001°45'114.8
2018-Sep-14 06:01N 50°58' E 001°44'815.2
2018-Sep-14 05:30N 51°02' E 001°34'715.3
2018-Sep-14 05:03N 51°06' E 001°24'115.9
2018-Sep-14 05:01N 51°06' E 001°23'2 4.5
2018-Sep-14 04:30N 51°08' E 001°20'0 0.0
2018-Sep-14 04:03N 51°08' E 001°20'0 0.0
2018-Sep-14 03:59N 51°08' E 001°20'4 7.9
2018-Sep-14 03:30N 51°07' E 001°26'716.5
2018-Sep-14 03:03N 51°03' E 001°36'116.8
2018-Sep-14 03:01N 51°03' E 001°38'815.3
2018-Sep-14 02:30N 50°58' E 001°47'2 5.3
2018-Sep-14 02:03N 50°58' E 001°51'0 0.0
2018-Sep-14 02:00N 50°58' E 001°51'0 0.0
2018-Sep-14 01:30N 50°58' E 001°51'0 0.2
2018-Sep-14 01:03N 50°58' E 001°51'0 5.9
2018-Sep-14 01:00N 50°58' E 001°51'816.4
2018-Sep-14 00:31N 50°59' E 001°38'817.0
2018-Sep-14 00:03N 51°04' E 001°28'116.2
2018-Sep-14 00:00N 51°04' E 001°27'510.2
2018-Sep-13 23:30N 51°08' E 001°20'0 0.0
2018-Sep-13 23:03N 51°08' E 001°20'0 0.0
2018-Sep-13 22:51N 51°08' E 001°20'3 7.4
2018-Sep-13 22:30N 51°07' E 001°24'716.0
2018-Sep-13 22:03N 51°03' E 001°34'116.3
2018-Sep-13 22:00N 51°02' E 001°35'917.3
2018-Sep-13 21:30N 50°58' E 001°47'3 6.3
2018-Sep-13 21:03N 50°58' E 001°51'0 0.0
2018-Sep-13 21:00N 50°58' E 001°51'0 0.0
2018-Sep-13 20:30N 50°58' E 001°51'612.8
2018-Sep-13 20:03N 50°58' E 001°42'115.8
2018-Sep-13 20:00N 50°58' E 001°41'917.1
2018-Sep-13 19:31N 51°03' E 001°30'816.7
2018-Sep-13 19:03N 51°07' E 001°20'0 0.2
2018-Sep-13 18:19N 51°08' E 001°20'1 3.4
2018-Sep-13 18:03N 51°07' E 001°22'117.9
2018-Sep-13 18:01N 51°07' E 001°23'815.5
2018-Sep-13 17:30N 51°03' E 001°33'818.7
2018-Sep-13 17:03N 50°58' E 001°45'116.7
2018-Sep-13 17:00N 50°58' E 001°46'3 6.7
2018-Sep-13 16:30N 50°58' E 001°51'0 0.0
2018-Sep-13 16:03N 50°58' E 001°51'0 0.0
2018-Sep-13 16:00N 50°58' E 001°51'4 7.1
2018-Sep-13 15:30N 50°58' E 001°46'817.8
2018-Sep-13 15:04N 51°01' E 001°34'118.4
2018-Sep-13 15:00N 51°01' E 001°33'1010.0
2018-Sep-13 14:01N 51°08' E 001°20'0 0.0
2018-Sep-13 14:00N 51°08' E 001°20'0 0.1
2018-Sep-13 13:29N 51°07' E 001°20'512.3
2018-Sep-13 13:04N 51°07' E 001°29'119.0
2018-Sep-13 13:00N 51°06' E 001°30'918.6
2018-Sep-13 12:30N 50°60' E 001°41'714.7
2018-Sep-13 12:04N 50°58' E 001°51'0 2.1
2018-Sep-13 12:00N 50°58' E 001°51'0 0.0
2018-Sep-13 11:30N 50°58' E 001°51'0 1.0
2018-Sep-13 11:03N 50°58' E 001°51'111.2
2018-Sep-13 11:01N 50°58' E 001°50'917.5
2018-Sep-13 10:31N 50°59' E 001°36'919.9
2018-Sep-13 10:03N 51°04' E 001°24'121.2
2018-Sep-13 10:01N 51°05' E 001°23'3 6.8
2018-Sep-13 09:30N 51°08' E 001°20'0 0.0
2018-Sep-13 09:02N 51°08' E 001°20'0 0.0
2018-Sep-13 08:58N 51°08' E 001°20'4 8.4
2018-Sep-13 08:30N 51°06' E 001°26'818.0
2018-Sep-13 08:03N 51°02' E 001°36'118.0
2018-Sep-13 08:00N 51°01' E 001°38'816.6
2018-Sep-13 07:30N 50°58' E 001°50'1 1.6
2018-Sep-13 07:03N 50°58' E 001°51'0 0.0
2018-Sep-13 07:00N 50°58' E 001°51'0 0.0
2018-Sep-13 06:30N 50°58' E 001°51'2 4.9
2018-Sep-13 06:04N 50°58' E 001°48'115.3
2018-Sep-13 06:00N 50°58' E 001°47'815.6
2018-Sep-13 05:30N 51°00' E 001°35'716.7
2018-Sep-13 05:04N 51°05' E 001°25'117.2
2018-Sep-13 05:00N 51°05' E 001°24'3 5.6
2018-Sep-13 04:25N 51°08' E 001°20'0 0.0
2018-Sep-13 04:03N 51°08' E 001°20'0 0.0
2018-Sep-13 03:59N 51°08' E 001°20'4 7.8
2018-Sep-13 03:30N 51°07' E 001°26'716.6
2018-Sep-13 03:03N 51°02' E 001°36'116.5
2018-Sep-13 03:00N 51°02' E 001°37'815.2
2018-Sep-13 02:30N 50°58' E 001°47'3 5.6
2018-Sep-13 02:03N 50°58' E 001°51'0 0.0
2018-Sep-13 02:01N 50°58' E 001°51'0 0.0
2018-Sep-13 01:30N 50°58' E 001°51'1 1.9
2018-Sep-13 01:03N 50°58' E 001°50'112.4
2018-Sep-13 01:00N 50°58' E 001°49'918.4
2018-Sep-13 00:30N 50°59' E 001°34'715.7
2018-Sep-13 00:03N 51°04' E 001°27'117.0
2018-Sep-13 00:00N 51°04' E 001°26'5 9.3
2018-Sep-12 23:30N 51°08' E 001°20'0 0.0
2018-Sep-12 23:01N 51°08' E 001°20'0 0.0
2018-Sep-12 22:59N 51°08' E 001°20'4 8.0
2018-Sep-12 22:30N 51°06' E 001°26'919.1
2018-Sep-12 22:03N 51°01' E 001°37'118.8
2018-Sep-12 22:00N 51°01' E 001°39'816.7
2018-Sep-12 21:30N 50°58' E 001°51'0 0.3
2018-Sep-12 21:03N 50°58' E 001°51'0 0.0
2018-Sep-12 21:00N 50°58' E 001°51'1 1.7
2018-Sep-12 20:30N 50°58' E 001°50'817.1
2018-Sep-12 20:03N 50°59' E 001°38'120.1
2018-Sep-12 20:00N 50°60' E 001°36'1020.7
2018-Sep-12 19:30N 51°06' E 001°23'3 2.2
2018-Sep-12 18:20N 51°08' E 001°20'1 3.4
2018-Sep-12 18:03N 51°07' E 001°22'114.1
2018-Sep-12 18:00N 51°07' E 001°23'918.9
2018-Sep-12 17:30N 51°02' E 001°36'919.0
2018-Sep-12 17:03N 50°58' E 001°47'119.2
2018-Sep-12 17:00N 50°58' E 001°49'1 2.8
2018-Sep-12 16:31N 50°58' E 001°51'0 0.0
2018-Sep-12 16:04N 50°58' E 001°51'0 0.0
2018-Sep-12 16:00N 50°58' E 001°51'611.9
2018-Sep-12 15:30N 50°58' E 001°42'920.4
2018-Sep-12 15:03N 51°03' E 001°29'120.5
2018-Sep-12 15:00N 51°04' E 001°28'6 6.3
2018-Sep-12 14:02N 51°08' E 001°20'0 0.0
2018-Sep-12 13:57N 51°08' E 001°20'0 0.9
2018-Sep-12 13:30N 51°07' E 001°21'818.3
2018-Sep-12 13:03N 51°05' E 001°33'121.0
2018-Sep-12 13:01N 51°04' E 001°34'1019.3
2018-Sep-12 12:31N 50°58' E 001°47'3 6.3
2018-Sep-12 12:03N 50°58' E 001°51'0 0.0
2018-Sep-12 12:00N 50°58' E 001°51'0 0.0
2018-Sep-12 11:30N 50°58' E 001°51'1 3.1
2018-Sep-12 11:03N 50°58' E 001°49'115.2
2018-Sep-12 11:00N 50°58' E 001°48'816.2
2018-Sep-12 10:30N 51°00' E 001°35'817.0
2018-Sep-12 10:03N 51°04' E 001°25'118.3
2018-Sep-12 10:00N 51°04' E 001°24'4 4.8
2018-Sep-12 09:13N 51°08' E 001°20'0 0.0
2018-Sep-12 09:03N 51°08' E 001°20'0 0.0
2018-Sep-12 08:48N 51°08' E 001°20'2 7.9
2018-Sep-12 08:31N 51°07' E 001°24'919.1
2018-Sep-12 08:03N 51°02' E 001°35'118.9
2018-Sep-12 08:00N 51°02' E 001°36'918.1
2018-Sep-12 07:31N 50°58' E 001°50'1 2.1
2018-Sep-12 07:04N 50°58' E 001°51'0 0.0
2018-Sep-12 07:00N 50°58' E 001°51'0 0.0
2018-Sep-12 06:31N 50°58' E 001°51'4 8.0
2018-Sep-12 06:03N 50°58' E 001°46'116.1
2018-Sep-12 06:00N 50°58' E 001°44'816.6
2018-Sep-12 05:30N 51°02' E 001°33'818.7
2018-Sep-12 05:04N 51°07' E 001°22'115.2
2018-Sep-12 05:01N 51°07' E 001°21'1 0.8
2018-Sep-12 04:22N 51°08' E 001°20'0 0.0
2018-Sep-12 04:03N 51°08' E 001°20'0 0.0
2018-Sep-12 04:00N 51°08' E 001°20'3 7.0
2018-Sep-12 03:31N 51°07' E 001°26'816.6
2018-Sep-12 03:03N 51°03' E 001°36'116.9
2018-Sep-12 03:00N 51°02' E 001°37'815.4
2018-Sep-12 02:30N 50°58' E 001°47'2 5.4
2018-Sep-12 02:03N 50°58' E 001°51'0 0.0
2018-Sep-12 02:00N 50°58' E 001°51'0 0.0
2018-Sep-12 01:30N 50°58' E 001°51'0 0.1
2018-Sep-12 01:03N 50°58' E 001°51'0 4.9
2018-Sep-12 01:00N 50°58' E 001°51'917.5
2018-Sep-12 00:30N 50°58' E 001°37'817.6
2018-Sep-12 00:03N 51°03' E 001°27'118.1
2018-Sep-12 00:00N 51°04' E 001°26'5 8.6
2018-Sep-11 23:25N 51°08' E 001°20'0 0.0
2018-Sep-11 23:03N 51°08' E 001°20'0 0.0
2018-Sep-11 22:59N 51°08' E 001°20'3 6.9
2018-Sep-11 22:30N 51°07' E 001°25'921.0
2018-Sep-11 22:03N 51°02' E 001°39'121.5
2018-Sep-11 22:01N 51°01' E 001°40'815.8
2018-Sep-11 21:30N 50°58' E 001°51'0 0.1
2018-Sep-11 21:04N 50°58' E 001°51'0 0.0
2018-Sep-11 21:00N 50°58' E 001°51'3 6.2
2018-Sep-11 20:31N 50°58' E 001°46'715.6
2018-Sep-11 20:04N 50°60' E 001°36'118.8
2018-Sep-11 20:00N 51°00' E 001°34'1019.9
2018-Sep-11 19:31N 51°06' E 001°22'1 3.0
2018-Sep-11 19:03N 51°08' E 001°20'0 0.0
2018-Sep-11 18:36N 51°08' E 001°20'0 0.2
2018-Sep-11 18:30N 51°08' E 001°20'510.2
2018-Sep-11 18:03N 51°06' E 001°27'116.7
2018-Sep-11 18:00N 51°06' E 001°28'817.0
2018-Sep-11 17:31N 51°01' E 001°39'716.0
2018-Sep-11 17:03N 50°58' E 001°50'110.4
2018-Sep-11 17:00N 50°58' E 001°51'0 0.5
2018-Sep-11 16:30N 50°58' E 001°51'0 0.6
2018-Sep-11 16:03N 50°58' E 001°51'0 9.1
2018-Sep-11 16:00N 50°58' E 001°50'816.3
2018-Sep-11 15:30N 50°60' E 001°37'919.2
2018-Sep-11 15:04N 51°05' E 001°26'120.1
2018-Sep-11 15:00N 51°05' E 001°25'4 4.9
2018-Sep-11 14:17N 51°08' E 001°20'0 0.0
2018-Sep-11 14:00N 51°08' E 001°20'0 0.8
2018-Sep-11 13:30N 51°07' E 001°20'613.1
2018-Sep-11 13:04N 51°05' E 001°29'119.0
2018-Sep-11 13:01N 51°05' E 001°30'918.4
2018-Sep-11 12:31N 50°60' E 001°42'612.9
2018-Sep-11 12:04N 50°58' E 001°51'0 0.5
2018-Sep-11 12:00N 50°58' E 001°51'0 0.0
2018-Sep-11 11:30N 50°58' E 001°51'0 0.2
2018-Sep-11 11:03N 50°58' E 001°51'0 6.3
2018-Sep-11 11:00N 50°58' E 001°51'918.5
2018-Sep-11 10:30N 50°60' E 001°36'920.2
2018-Sep-11 10:03N 51°05' E 001°24'119.7
2018-Sep-11 10:01N 51°06' E 001°23'3 5.1
2018-Sep-11 09:28N 51°08' E 001°20'0 0.0
2018-Sep-11 09:03N 51°08' E 001°20'0 0.0
2018-Sep-11 08:58N 51°08' E 001°20'2 5.4
2018-Sep-11 08:31N 51°07' E 001°24'918.9
2018-Sep-11 08:03N 51°02' E 001°35'119.1
2018-Sep-11 08:01N 51°02' E 001°37'917.8
2018-Sep-11 07:30N 50°58' E 001°50'1 2.1
2018-Sep-11 07:03N 50°58' E 001°51'0 0.0
2018-Sep-11 07:00N 50°58' E 001°51'0 0.0
2018-Sep-11 06:30N 50°58' E 001°51'3 6.1
2018-Sep-11 06:04N 50°58' E 001°47'116.8
2018-Sep-11 06:01N 50°58' E 001°46'816.4
2018-Sep-11 05:31N 51°02' E 001°34'817.4
2018-Sep-11 05:03N 51°06' E 001°24'116.6
2018-Sep-11 05:00N 51°06' E 001°22'2 3.4
2018-Sep-11 04:30N 51°08' E 001°20'0 0.0
2018-Sep-11 04:03N 51°08' E 001°20'0 0.0
2018-Sep-11 03:59N 51°08' E 001°20'3 6.2
2018-Sep-11 03:31N 51°07' E 001°25'715.7
2018-Sep-11 03:03N 51°03' E 001°34'115.9
2018-Sep-11 03:00N 51°02' E 001°35'815.3
2018-Sep-11 02:31N 50°58' E 001°45'4 8.2
2018-Sep-11 02:03N 50°58' E 001°51'0 0.0
2018-Sep-11 02:01N 50°58' E 001°51'0 0.0
2018-Sep-11 01:31N 50°58' E 001°51'0 0.1
2018-Sep-11 01:04N 50°58' E 001°51'0 3.8
2018-Sep-11 01:01N 50°58' E 001°51'714.1
2018-Sep-11 00:30N 50°59' E 001°40'818.3
2018-Sep-11 00:04N 51°03' E 001°29'117.9
2018-Sep-11 00:01N 51°04' E 001°28'610.1
2018-Sep-10 23:25N 51°08' E 001°20'0 0.0
2018-Sep-10 22:57N 51°08' E 001°20'2 5.5
2018-Sep-10 22:30N 51°07' E 001°24'818.8
2018-Sep-10 22:03N 51°02' E 001°35'119.4
2018-Sep-10 22:00N 51°01' E 001°36'917.6
2018-Sep-10 21:30N 50°58' E 001°49'1 2.8
2018-Sep-10 21:03N 50°58' E 001°51'0 0.0
2018-Sep-10 21:00N 50°58' E 001°51'0 0.0
2018-Sep-10 20:31N 50°58' E 001°51'510.1
2018-Sep-10 20:04N 50°58' E 001°44'117.7
2018-Sep-10 20:00N 50°58' E 001°43'917.4
2018-Sep-10 19:31N 51°02' E 001°30'818.6
2018-Sep-10 19:04N 51°07' E 001°20'0 2.1
2018-Sep-10 19:00N 51°08' E 001°20'0 0.0
2018-Sep-10 18:28N 51°08' E 001°20'0 0.3
2018-Sep-10 18:03N 51°07' E 001°20'0 7.2
2018-Sep-10 18:00N 51°07' E 001°21'4 8.5
2018-Sep-10 17:30N 51°07' E 001°28'818.6
2018-Sep-10 17:03N 51°02' E 001°39'119.1
2018-Sep-10 17:00N 51°01' E 001°40'815.7
2018-Sep-10 16:31N 50°58' E 001°51'0 0.3
2018-Sep-10 16:03N 50°58' E 001°51'0 0.0
2018-Sep-10 16:00N 50°58' E 001°51'1 2.0
2018-Sep-10 15:31N 50°58' E 001°50'818.2
2018-Sep-10 15:03N 50°60' E 001°37'119.6
2018-Sep-10 15:00N 51°00' E 001°36'1019.7
2018-Sep-10 14:30N 51°06' E 001°23'2 3.8
2018-Sep-10 13:55N 51°08' E 001°20'0 0.0
2018-Sep-10 13:30N 51°08' E 001°20'3 5.7
2018-Sep-10 13:03N 51°07' E 001°24'118.3
2018-Sep-10 13:00N 51°07' E 001°26'1019.4
2018-Sep-10 12:30N 51°02' E 001°39'816.9
2018-Sep-10 12:04N 50°58' E 001°50'112.7
2018-Sep-10 12:00N 50°58' E 001°51'0 0.7
2018-Sep-10 11:30N 50°58' E 001°51'0 0.0
2018-Sep-10 11:03N 50°58' E 001°51'0 2.6
2018-Sep-10 11:00N 50°58' E 001°51'815.3
2018-Sep-10 10:30N 50°59' E 001°39'817.1
2018-Sep-10 10:03N 51°03' E 001°29'117.2
2018-Sep-10 10:00N 51°04' E 001°28'611.9
2018-Sep-10 09:30N 51°08' E 001°20'0 0.0
2018-Sep-10 09:01N 51°08' E 001°20'0 0.0
2018-Sep-10 09:00N 51°08' E 001°20'3 5.1
2018-Sep-10 08:30N 51°07' E 001°24'818.2
2018-Sep-10 08:03N 51°02' E 001°35'118.5
2018-Sep-10 08:00N 51°02' E 001°36'917.5
2018-Sep-10 07:31N 50°58' E 001°49'2 3.6
2018-Sep-10 07:04N 50°58' E 001°51'0 0.0
2018-Sep-10 07:01N 50°58' E 001°51'0 0.0
2018-Sep-10 06:30N 50°58' E 001°51'3 7.1
2018-Sep-10 06:03N 50°58' E 001°46'114.7
2018-Sep-10 06:00N 50°58' E 001°45'815.9
2018-Sep-10 05:30N 51°02' E 001°34'816.8
2018-Sep-10 05:03N 51°06' E 001°24'116.2
2018-Sep-10 05:00N 51°06' E 001°23'2 2.5
2018-Sep-10 04:09N 51°08' E 001°20'0 0.1
2018-Sep-10 04:03N 51°08' E 001°20'0 1.0
2018-Sep-10 04:00N 51°07' E 001°20'612.4
2018-Sep-10 03:30N 51°06' E 001°30'816.9
2018-Sep-10 03:03N 51°01' E 001°39'117.0
2018-Sep-10 03:00N 51°01' E 001°40'713.9
2018-Sep-10 02:30N 50°58' E 001°51'0 0.6
2018-Sep-10 02:03N 50°58' E 001°51'0 0.0
2018-Sep-10 02:00N 50°58' E 001°51'0 0.0
2018-Sep-10 01:30N 50°58' E 001°51'0 0.8
2018-Sep-10 01:04N 50°58' E 001°51'110.3
2018-Sep-10 01:00N 50°58' E 001°50'816.7
2018-Sep-10 00:30N 50°60' E 001°37'716.6
2018-Sep-10 00:03N 51°04' E 001°27'117.2
2018-Sep-10 00:00N 51°05' E 001°26'4 8.8
2018-Sep-09 23:30N 51°08' E 001°20'0 0.0
2018-Sep-09 23:02N 51°08' E 001°20'0 0.0
2018-Sep-09 23:01N 51°08' E 001°20'1 2.4
2018-Sep-09 22:30N 51°07' E 001°22'816.8
2018-Sep-09 22:03N 51°04' E 001°33'118.8
2018-Sep-09 22:00N 51°04' E 001°34'918.3
2018-Sep-09 21:30N 50°58' E 001°46'3 7.1
2018-Sep-09 21:03N 50°58' E 001°51'0 0.0
2018-Sep-09 21:00N 50°58' E 001°51'0 0.0
2018-Sep-09 20:30N 50°58' E 001°51'511.3
2018-Sep-09 20:03N 50°58' E 001°43'117.2
2018-Sep-09 20:00N 50°58' E 001°42'917.3
2018-Sep-09 19:30N 51°02' E 001°30'716.2
2018-Sep-09 19:03N 51°07' E 001°21'0 8.1
2018-Sep-09 19:00N 51°07' E 001°20'0 0.2
2018-Sep-09 18:22N 51°08' E 001°20'1 1.6
2018-Sep-09 18:03N 51°07' E 001°20'0 0.0
2018-Sep-09 18:01N 51°07' E 001°20'611.8
2018-Sep-09 17:31N 51°06' E 001°29'918.7
2018-Sep-09 17:03N 51°01' E 001°40'118.9
2018-Sep-09 17:00N 51°00' E 001°41'713.3
2018-Sep-09 16:30N 50°58' E 001°51'0 0.0
2018-Sep-09 16:03N 50°58' E 001°51'0 0.0
2018-Sep-09 16:00N 50°58' E 001°51'2 3.4
2018-Sep-09 15:30N 50°58' E 001°49'715.7
2018-Sep-09 15:03N 50°59' E 001°38'118.5
2018-Sep-09 15:00N 51°00' E 001°37'918.1
2018-Sep-09 14:30N 51°06' E 001°25'4 5.7
2018-Sep-09 13:52N 51°08' E 001°20'0 0.0
2018-Sep-09 13:28N 51°08' E 001°20'3 6.5
2018-Sep-09 13:03N 51°07' E 001°24'118.0
2018-Sep-09 13:00N 51°07' E 001°26'1020.1
2018-Sep-09 12:31N 51°01' E 001°39'816.9
2018-Sep-09 12:03N 50°58' E 001°50'1 4.1
2018-Sep-09 11:56N 50°58' E 001°51'0 0.1
2018-Sep-09 11:26N 50°58' E 001°51'0 0.0
2018-Sep-09 10:59N 50°58' E 001°51'0 0.0
2018-Sep-09 10:29N 50°58' E 001°51'0 0.0
2018-Sep-09 10:02N 50°58' E 001°51'0 0.0
2018-Sep-09 09:56N 50°58' E 001°51'0 0.0
2018-Sep-09 09:29N 50°58' E 001°51'0 0.0
2018-Sep-09 09:02N 50°58' E 001°51'0 0.0
2018-Sep-09 08:59N 50°58' E 001°51'0 0.0
2018-Sep-09 08:29N 50°58' E 001°51'0 0.0
2018-Sep-09 08:03N 50°58' E 001°51'0 0.0
2018-Sep-09 08:01N 50°58' E 001°51'0 0.0
2018-Sep-09 07:31N 50°58' E 001°51'0 0.0
2018-Sep-09 07:03N 50°58' E 001°51'0 0.0
2018-Sep-09 07:01N 50°58' E 001°51'0 0.0
2018-Sep-09 06:30N 50°58' E 001°51'0 0.0
2018-Sep-09 06:03N 50°58' E 001°51'0 0.0
2018-Sep-09 06:00N 50°58' E 001°51'0 0.0
2018-Sep-09 05:31N 50°58' E 001°51'0 0.0
2018-Sep-09 05:03N 50°58' E 001°51'0 0.0
2018-Sep-09 05:00N 50°58' E 001°51'0 0.0
2018-Sep-09 04:30N 50°58' E 001°51'0 0.0
2018-Sep-09 04:03N 50°58' E 001°51'0 0.1
2018-Sep-09 04:00N 50°58' E 001°51'0 0.0
2018-Sep-09 03:30N 50°58' E 001°51'0 0.0
2018-Sep-09 03:03N 50°58' E 001°51'0 0.0
2018-Sep-09 03:00N 50°58' E 001°51'0 0.0
2018-Sep-09 02:31N 50°58' E 001°51'  

Dump ship's entire track history